Time;durP1;ratioP1;P1;durP2;ratioP2;P2;SDS_P1;SDS_P2;PMS_P1;PMS_P2;Temp;Humidity;BMP_temperature;BMP_pressure;BME280_temperature;BME280_humidity;BME280_pressure;Samples;Min_cycle;Max_cycle;Signal;HPM_P1;HPM_P2
2023/10/31 11:13:22;;;;;;;75.95;40.85;;;21.10;58.00;;;;;;5070414;28;20445;-78
2023/10/31 11:15:52;;;;;;;15.68;6.85;;;21.20;59.10;;;;;;5056074;28;20456;-77
2023/10/31 11:18:18;;;;;;;17.77;6.95;;;21.40;58.00;;;;;;5050679;28;20022;-77
2023/10/31 11:20:45;;;;;;;12.38;6.95;;;;;;;;;;5063441;28;20024;-78
2023/10/31 11:23:11;;;;;;;11.77;5.10;;;;;;;;;;5067898;28;20116;-78
2023/10/31 11:25:43;;;;;;;14.90;6.40;;;;;;;;;;5068413;28;20024;-77
2023/10/31 11:28:14;;;;;;;15.55;6.53;;;;;;;;;;5061106;28;20447;-78
2023/10/31 11:30:40;;;;;;;10.05;4.18;;;;;;;;;;5052097;28;20467;-78
2023/10/31 11:33:11;;;;;;;15.55;3.10;;;;;;;;;;5049849;28;20024;-78
2023/10/31 11:36:39;;;;;;;12.25;5.00;;;;;;;;;;5069857;28;20399;-78
2023/10/31 11:39:15;;;;;;;10.65;5.30;;;;;;;;;;5063216;28;20035;-77
2023/10/31 11:41:46;;;;;;;13.25;5.70;;;;;;;;;;5056354;28;20055;-76
2023/10/31 11:47:16;;;;;;;18.27;6.10;;;;;;;;;;5090865;27;20323;-76
2023/10/31 11:49:48;;;;;;;11.60;6.28;;;;;;;;;;5090002;28;20465;-77
2023/10/31 11:52:16;;;;;;;26.45;7.15;;;;;;;;;;5084947;28;20103;-74
2023/10/31 11:54:42;;;;;;;16.27;7.40;;;;;;;;;;5090164;28;20034;-76
2023/10/31 11:57:08;;;;;;;13.18;5.78;;;;;;;;;;5080107;28;20458;-77
2023/10/31 11:59:38;;;;;;;11.73;5.53;;;;;;;;;;5089576;28;20028;-77
2023/10/31 12:02:18;;;;;;;13.55;5.70;;;;;;;;;;5090839;28;20020;-78
2023/10/31 12:04:44;;;;;;;12.88;5.25;;;;;;;;;;5088372;28;20443;-77
2023/10/31 12:07:10;;;;;;;15.73;6.38;;;;;;;;;;5089699;28;20024;-77
2023/10/31 12:09:47;;;;;;;15.10;6.72;;;;;;;;;;5090047;28;20012;-76
2023/10/31 12:12:13;;;;;;;12.57;6.13;;;;;;;;;;5090021;28;20020;-77
2023/10/31 12:14:39;;;;;;;17.08;6.85;;;;;;;;;;5090189;28;20072;-76
2023/10/31 12:17:09;;;;;;;26.50;7.40;;;;;;;;;;5088622;28;20038;-76
2023/10/31 12:19:36;;;;;;;15.18;7.78;;;;;;;;;;5089991;28;20044;-76
2023/10/31 12:22:02;;;;;;;19.92;7.35;;;;;;;;;;5088478;28;20067;-80
2023/10/31 12:24:29;;;;;;;17.30;7.75;;;;;;;;;;5089826;28;20028;-77
2023/10/31 12:26:55;;;;;;;21.85;9.10;;;22.10;55.50;;;;;;5089653;28;20024;-77
2023/10/31 12:29:22;;;;;;;19.60;10.02;;;22.10;56.00;;;;;;5071281;28;20378;-76
2023/10/31 12:31:53;;;;;;;23.08;11.32;;;22.00;55.00;;;;;;5089995;28;20112;-77
2023/10/31 12:34:21;;;;;;;32.37;14.97;;;22.00;55.60;;;;;;5089369;28;20024;-77
2023/10/31 12:36:49;;;;;;;22.65;11.52;;;21.90;56.00;;;;;;5089940;28;20123;-77
2023/10/31 12:39:16;;;;;;;18.83;8.93;;;21.90;56.70;;;;;;5089617;28;20059;-77
2023/10/31 12:41:43;;;;;;;22.00;11.48;;;21.90;56.70;;;;;;5089723;28;20029;-77
2023/10/31 12:44:12;;;;;;;23.23;14.05;;;21.90;57.30;;;;;;5089223;28;20401;-77
2023/10/31 12:46:42;;;;;;;28.02;10.57;;;21.80;57.00;;;;;;5105752;28;20046;-77
2023/10/31 12:49:20;;;;;;;18.23;7.68;;;21.90;58.30;;;;;;5108993;28;20027;-77
2023/10/31 12:52:00;;;;;;;18.35;7.05;;;21.80;57.60;;;;;;5091761;28;20031;-76
2023/10/31 12:54:36;;;;;;;20.25;7.50;;;21.80;57.90;;;;;;5091181;28;20116;-77
2023/10/31 12:57:04;;;;;;;25.67;10.43;;;21.80;58.00;;;;;;5104261;28;20030;-76
2023/10/31 12:59:31;;;;;;;29.15;8.82;;;21.80;58.00;;;;;;5096230;28;20024;-77
2023/10/31 13:01:57;;;;;;;16.48;7.20;;;21.80;58.30;;;;;;5095837;28;20027;-77
2023/10/31 13:04:28;;;;;;;21.92;8.20;;;21.80;58.70;;;;;;5077546;28;20990;-76
2023/10/31 13:06:57;;;;;;;18.00;8.68;;;21.80;59.00;;;;;;5095940;28;20058;-77
2023/10/31 13:09:22;;;;;;;18.23;7.65;;;21.80;59.30;;;;;;5095600;28;20056;-77
2023/10/31 13:11:49;;;;;;;22.20;7.97;;;21.70;59.20;;;;;;5077704;28;20051;-77
2023/10/31 13:14:14;;;;;;;22.15;8.60;;;21.70;59.50;;;;;;5095728;28;20028;-77
2023/10/31 13:16:40;;;;;;;24.45;9.43;;;21.80;59.70;;;;;;5095486;28;20363;-77
2023/10/31 13:19:06;;;;;;;22.75;8.65;;;21.80;60.00;;;;;;5079718;28;20473;-78
2023/10/31 13:21:31;;;;;;;19.95;7.53;;;21.80;60.20;;;;;;5088089;28;20404;-78
2023/10/31 13:23:57;;;;;;;22.27;7.75;;;21.80;60.90;;;;;;5095109;28;20085;-77
2023/10/31 13:26:23;;;;;;;18.13;7.22;;;21.80;60.90;;;;;;5095188;28;20851;-78
2023/10/31 13:28:49;;;;;;;21.58;7.68;;;21.80;61.20;;;;;;5077448;28;20515;-77
2023/10/31 13:31:15;;;;;;;19.77;8.93;;;21.80;61.50;;;;;;5094941;28;20020;-77
2023/10/31 13:33:40;;;;;;;23.60;8.10;;;21.80;61.90;;;;;;5077507;28;20028;-78
2023/10/31 13:36:06;;;;;;;23.45;8.23;;;21.80;62.10;;;;;;5095357;28;20378;-77
2023/10/31 13:38:32;;;;;;;30.95;11.43;;;21.80;62.80;;;;;;5076993;28;20450;-77
2023/10/31 13:40:58;;;;;;;35.85;12.30;;;21.70;62.90;;;;;;5077174;28;20116;-77
2023/10/31 13:43:24;;;;;;;36.70;12.55;;;21.70;63.30;;;;;;5095023;28;20024;-77
2023/10/31 13:45:49;;;;;;;51.80;12.02;;;21.70;63.30;;;;;;5094726;28;20051;-77
2023/10/31 13:48:15;;;;;;;35.78;14.02;;;21.70;63.80;;;;;;5077586;28;20020;-77
2023/10/31 13:50:41;;;;;;;28.30;11.88;;;21.60;64.20;;;;;;5096188;28;20481;-77
2023/10/31 13:53:07;;;;;;;23.48;9.95;;;21.60;64.60;;;;;;5095115;28;20016;-78
2023/10/31 13:55:33;;;;;;;47.58;11.52;;;21.70;64.30;;;;;;5095913;28;20031;-77
2023/10/31 13:58:00;;;;;;;30.15;9.63;;;21.60;64.40;;;;;;5095689;28;20101;-78
2023/10/31 14:00:25;;;;;;;25.38;9.27;;;21.60;65.20;;;;;;5071468;28;20051;-78
2023/10/31 14:02:51;;;;;;;30.17;8.50;;;21.60;64.20;;;;;;5088735;28;20060;-77
2023/10/31 14:05:17;;;;;;;25.77;7.75;;;21.60;64.00;;;;;;5095286;28;20028;-77
2023/10/31 14:07:43;;;;;;;45.53;12.05;;;21.60;63.00;;;;;;5095459;28;20027;-77
2023/10/31 14:10:09;;;;;;;28.08;8.40;;;21.70;63.30;;;;;;5076337;28;20024;-76
2023/10/31 14:12:35;;;;;;;17.15;6.95;;;21.70;64.00;;;;;;5094969;28;20106;-77
2023/10/31 14:15:00;;;;;;;28.42;6.43;;;21.60;64.00;;;;;;5077155;28;20122;-79
2023/10/31 14:17:26;;;;;;;41.70;14.75;;;21.60;63.60;;;;;;5095253;28;20107;-77
2023/10/31 14:19:52;;;;;;;22.77;8.90;;;21.60;64.00;;;;;;5094958;28;20024;-78
2023/10/31 14:22:18;;;;;;;33.05;8.73;;;21.60;63.20;;;;;;5094865;28;20024;-80
2023/10/31 14:24:43;;;;;;;22.10;7.60;;;21.60;64.40;;;;;;5094889;28;20111;-80
2023/10/31 14:27:09;;;;;;;29.33;8.60;;;21.50;64.80;;;;;;5094489;28;20454;-79
2023/10/31 14:29:35;;;;;;;71.70;30.25;;;21.50;64.50;;;;;;5095033;28;20080;-80
2023/10/31 14:32:10;;;;;;;64.65;25.73;;;21.40;64.90;;;;;;5094961;28;20111;-80
2023/10/31 14:36:59;;;;;;;51.47;11.57;;;20.40;90.60;;;;;;5099236;27;20331;-79
2023/10/31 14:39:55;;;;;;;28.90;11.50;;;20.30;79.70;;;;;;5091024;28;20390;-78
2023/10/31 14:42:21;;;;;;;55.70;18.15;;;19.70;84.30;;;;;;5072867;28;20101;-79
2023/10/31 14:46:47;;;;;;;21.92;8.85;;;19.50;86.00;;;;;;5173653;27;20358;-80
2023/10/31 14:49:13;;;;;;;116.50;54.25;;;19.20;89.60;;;;;;5109441;28;20475;-77
2023/10/31 14:51:41;;;;;;;32.03;14.18;;;19.10;90.20;;;;;;5109539;28;20115;-79
2023/10/31 14:56:22;;;;;;;20.27;7.32;;;18.80;91.20;;;;;;5093268;27;20324;-78
2023/10/31 14:58:48;;;;;;;18.20;7.63;;;18.60;91.80;;;;;;5070984;28;20042;-78
2023/10/31 15:02:57;;;;;;;15.90;6.63;;;18.10;97.60;;;;;;5090698;27;20556;-78
2023/10/31 15:05:23;;;;;;;20.20;6.57;;;17.80;99.90;;;;;;5091339;28;20056;-78
2023/10/31 15:08:37;;;;;;;13.73;6.78;;;17.60;99.90;;;;;;5090707;28;20536;-79
2023/10/31 15:12:54;;;;;;;23.83;7.38;;;17.50;99.90;;;;;;5070985;28;20383;-78
2023/10/31 15:15:20;;;;;;;13.85;6.20;;;17.60;99.90;;;;;;5067408;28;20116;-78
